sensor_id;sensor_type;location;lat;lon;timestamp;P1;durP1;ratioP1;P2;durP2;ratioP2
74791;SDS011;63319;46.046;17.802;2023-03-23T00:00:35;7.30;;;3.78;;
74791;SDS011;63319;46.046;17.802;2023-03-23T00:03:37;6.22;;;3.50;;
74791;SDS011;63319;46.046;17.802;2023-03-23T00:06:39;8.70;;;4.32;;
74791;SDS011;63319;46.046;17.802;2023-03-23T00:09:41;7.38;;;4.07;;
74791;SDS011;63319;46.046;17.802;2023-03-23T00:12:42;6.80;;;3.57;;
74791;SDS011;63319;46.046;17.802;2023-03-23T00:15:50;7.03;;;3.63;;
74791;SDS011;63319;46.046;17.802;2023-03-23T00:18:53;7.78;;;4.07;;
74791;SDS011;63319;46.046;17.802;2023-03-23T00:21:55;6.43;;;3.45;;
74791;SDS011;63319;46.046;17.802;2023-03-23T00:24:56;7.82;;;4.10;;
74791;SDS011;63319;46.046;17.802;2023-03-23T00:27:58;7.47;;;3.30;;
74791;SDS011;63319;46.046;17.802;2023-03-23T00:31:01;6.93;;;3.50;;
74791;SDS011;63319;46.046;17.802;2023-03-23T00:34:04;9.70;;;4.05;;
74791;SDS011;63319;46.046;17.802;2023-03-23T00:37:06;7.55;;;3.70;;
74791;SDS011;63319;46.046;17.802;2023-03-23T00:40:10;6.40;;;3.70;;
74791;SDS011;63319;46.046;17.802;2023-03-23T00:43:12;7.77;;;4.37;;
74791;SDS011;63319;46.046;17.802;2023-03-23T00:46:16;9.90;;;4.03;;
74791;SDS011;63319;46.046;17.802;2023-03-23T00:49:19;7.28;;;4.07;;
74791;SDS011;63319;46.046;17.802;2023-03-23T00:52:26;7.53;;;3.90;;
74791;SDS011;63319;46.046;17.802;2023-03-23T00:55:27;5.90;;;3.45;;
74791;SDS011;63319;46.046;17.802;2023-03-23T00:58:33;7.03;;;3.37;;
74791;SDS011;63319;46.046;17.802;2023-03-23T01:01:36;7.30;;;3.42;;
74791;SDS011;63319;46.046;17.802;2023-03-23T01:04:38;7.35;;;4.32;;
74791;SDS011;63319;46.046;17.802;2023-03-23T01:07:40;7.40;;;3.67;;
74791;SDS011;63319;46.046;17.802;2023-03-23T01:10:43;6.80;;;3.33;;
74791;SDS011;63319;46.046;17.802;2023-03-23T01:13:45;8.30;;;3.83;;
74791;SDS011;63319;46.046;17.802;2023-03-23T01:16:47;7.05;;;3.63;;
74791;SDS011;63319;46.046;17.802;2023-03-23T01:19:49;7.35;;;3.67;;
74791;SDS011;63319;46.046;17.802;2023-03-23T01:22:50;6.35;;;3.35;;
74791;SDS011;63319;46.046;17.802;2023-03-23T01:25:53;7.65;;;4.10;;
74791;SDS011;63319;46.046;17.802;2023-03-23T01:28:59;6.33;;;3.67;;
74791;SDS011;63319;46.046;17.802;2023-03-23T01:32:01;7.00;;;3.72;;
74791;SDS011;63319;46.046;17.802;2023-03-23T01:35:04;6.60;;;3.53;;
74791;SDS011;63319;46.046;17.802;2023-03-23T01:38:07;7.55;;;3.55;;
74791;SDS011;63319;46.046;17.802;2023-03-23T01:41:09;6.43;;;3.50;;
74791;SDS011;63319;46.046;17.802;2023-03-23T01:47:29;7.50;;;3.60;;
74791;SDS011;63319;46.046;17.802;2023-03-23T01:50:33;7.03;;;3.38;;
74791;SDS011;63319;46.046;17.802;2023-03-23T01:53:44;6.43;;;3.60;;
74791;SDS011;63319;46.046;17.802;2023-03-23T01:56:53;7.47;;;4.00;;
74791;SDS011;63319;46.046;17.802;2023-03-23T02:00:02;7.57;;;3.40;;
74791;SDS011;63319;46.046;17.802;2023-03-23T02:03:23;6.72;;;3.63;;
74791;SDS011;63319;46.046;17.802;2023-03-23T02:06:25;7.53;;;3.45;;
74791;SDS011;63319;46.046;17.802;2023-03-23T02:09:40;6.07;;;3.20;;
74791;SDS011;63319;46.046;17.802;2023-03-23T02:12:42;7.10;;;3.70;;
74791;SDS011;63319;46.046;17.802;2023-03-23T02:15:51;6.43;;;3.27;;
74791;SDS011;63319;46.046;17.802;2023-03-23T02:22:22;6.15;;;3.20;;
74791;SDS011;63319;46.046;17.802;2023-03-23T02:25:52;6.53;;;3.50;;
74791;SDS011;63319;46.046;17.802;2023-03-23T02:42:18;5.65;;;2.92;;
74791;SDS011;63319;46.046;17.802;2023-03-23T02:45:25;7.03;;;3.45;;
74791;SDS011;63319;46.046;17.802;2023-03-23T02:48:30;6.80;;;3.43;;
74791;SDS011;63319;46.046;17.802;2023-03-23T02:51:32;6.68;;;3.55;;
74791;SDS011;63319;46.046;17.802;2023-03-23T02:54:37;6.43;;;3.30;;
74791;SDS011;63319;46.046;17.802;2023-03-23T02:57:40;7.25;;;3.45;;
74791;SDS011;63319;46.046;17.802;2023-03-23T03:00:44;5.57;;;3.10;;
74791;SDS011;63319;46.046;17.802;2023-03-23T03:03:50;6.30;;;3.43;;
74791;SDS011;63319;46.046;17.802;2023-03-23T03:06:56;6.75;;;3.30;;
74791;SDS011;63319;46.046;17.802;2023-03-23T03:13:23;6.35;;;3.28;;
74791;SDS011;63319;46.046;17.802;2023-03-23T03:16:46;5.57;;;3.10;;
74791;SDS011;63319;46.046;17.802;2023-03-23T03:19:56;6.20;;;3.37;;
74791;SDS011;63319;46.046;17.802;2023-03-23T03:23:01;7.80;;;3.30;;
74791;SDS011;63319;46.046;17.802;2023-03-23T03:26:06;6.57;;;3.75;;
74791;SDS011;63319;46.046;17.802;2023-03-23T03:29:26;7.75;;;3.22;;
74791;SDS011;63319;46.046;17.802;2023-03-23T03:32:36;5.47;;;3.00;;
74791;SDS011;63319;46.046;17.802;2023-03-23T03:35:42;5.73;;;3.07;;
74791;SDS011;63319;46.046;17.802;2023-03-23T03:38:46;6.72;;;3.22;;
74791;SDS011;63319;46.046;17.802;2023-03-23T03:41:50;6.32;;;3.00;;
74791;SDS011;63319;46.046;17.802;2023-03-23T03:44:52;7.22;;;3.45;;
74791;SDS011;63319;46.046;17.802;2023-03-23T03:47:54;6.32;;;3.00;;
74791;SDS011;63319;46.046;17.802;2023-03-23T03:50:56;7.07;;;3.07;;
74791;SDS011;63319;46.046;17.802;2023-03-23T03:53:58;6.13;;;3.22;;
74791;SDS011;63319;46.046;17.802;2023-03-23T03:57:00;6.82;;;3.25;;
74791;SDS011;63319;46.046;17.802;2023-03-23T04:00:21;5.97;;;2.92;;
74791;SDS011;63319;46.046;17.802;2023-03-23T04:03:24;5.60;;;3.50;;
74791;SDS011;63319;46.046;17.802;2023-03-23T04:06:38;6.00;;;2.70;;
74791;SDS011;63319;46.046;17.802;2023-03-23T04:09:40;7.18;;;3.05;;
74791;SDS011;63319;46.046;17.802;2023-03-23T04:12:43;6.05;;;3.30;;
74791;SDS011;63319;46.046;17.802;2023-03-23T04:16:18;5.85;;;3.15;;
74791;SDS011;63319;46.046;17.802;2023-03-23T04:19:20;6.20;;;3.55;;
74791;SDS011;63319;46.046;17.802;2023-03-23T04:22:23;9.10;;;2.90;;
74791;SDS011;63319;46.046;17.802;2023-03-23T04:25:33;6.55;;;3.05;;
74791;SDS011;63319;46.046;17.802;2023-03-23T04:28:38;6.15;;;3.08;;
74791;SDS011;63319;46.046;17.802;2023-03-23T04:32:00;6.72;;;3.15;;
74791;SDS011;63319;46.046;17.802;2023-03-23T04:35:12;6.05;;;3.45;;
74791;SDS011;63319;46.046;17.802;2023-03-23T04:38:28;7.10;;;3.30;;
74791;SDS011;63319;46.046;17.802;2023-03-23T04:41:36;6.68;;;3.42;;
74791;SDS011;63319;46.046;17.802;2023-03-23T04:44:58;5.78;;;2.83;;
74791;SDS011;63319;46.046;17.802;2023-03-23T04:48:14;6.38;;;3.60;;
74791;SDS011;63319;46.046;17.802;2023-03-23T04:51:28;7.22;;;3.33;;
74791;SDS011;63319;46.046;17.802;2023-03-23T04:54:40;5.67;;;3.10;;
74791;SDS011;63319;46.046;17.802;2023-03-23T04:57:42;5.65;;;2.97;;
74791;SDS011;63319;46.046;17.802;2023-03-23T05:01:20;8.32;;;3.40;;
74791;SDS011;63319;46.046;17.802;2023-03-23T05:04:48;5.85;;;3.30;;
74791;SDS011;63319;46.046;17.802;2023-03-23T05:07:54;6.43;;;3.42;;
74791;SDS011;63319;46.046;17.802;2023-03-23T05:11:00;6.17;;;2.70;;
74791;SDS011;63319;46.046;17.802;2023-03-23T05:14:07;6.65;;;3.13;;
74791;SDS011;63319;46.046;17.802;2023-03-23T05:17:09;7.38;;;3.20;;
74791;SDS011;63319;46.046;17.802;2023-03-23T05:20:14;6.97;;;3.35;;
74791;SDS011;63319;46.046;17.802;2023-03-23T05:23:22;6.25;;;3.20;;
74791;SDS011;63319;46.046;17.802;2023-03-23T05:26:31;6.27;;;3.20;;
74791;SDS011;63319;46.046;17.802;2023-03-23T05:29:40;5.55;;;2.92;;
74791;SDS011;63319;46.046;17.802;2023-03-23T05:32:43;6.45;;;3.00;;
74791;SDS011;63319;46.046;17.802;2023-03-23T05:36:12;5.78;;;3.15;;
74791;SDS011;63319;46.046;17.802;2023-03-23T05:39:43;5.30;;;3.00;;
74791;SDS011;63319;46.046;17.802;2023-03-23T05:43:09;5.37;;;2.80;;
74791;SDS011;63319;46.046;17.802;2023-03-23T05:46:21;6.30;;;3.30;;
74791;SDS011;63319;46.046;17.802;2023-03-23T05:49:24;5.25;;;3.00;;
74791;SDS011;63319;46.046;17.802;2023-03-23T05:52:29;6.78;;;3.05;;
74791;SDS011;63319;46.046;17.802;2023-03-23T05:55:35;6.90;;;2.92;;
74791;SDS011;63319;46.046;17.802;2023-03-23T05:58:46;6.77;;;3.30;;
74791;SDS011;63319;46.046;17.802;2023-03-23T06:01:48;6.57;;;2.67;;
74791;SDS011;63319;46.046;17.802;2023-03-23T06:04:51;6.45;;;3.30;;
74791;SDS011;63319;46.046;17.802;2023-03-23T06:08:04;5.93;;;3.40;;
74791;SDS011;63319;46.046;17.802;2023-03-23T06:11:09;5.53;;;2.80;;
74791;SDS011;63319;46.046;17.802;2023-03-23T06:14:17;5.63;;;2.90;;
74791;SDS011;63319;46.046;17.802;2023-03-23T06:17:19;5.43;;;2.75;;
74791;SDS011;63319;46.046;17.802;2023-03-23T06:20:25;5.97;;;3.20;;
74791;SDS011;63319;46.046;17.802;2023-03-23T06:23:28;5.00;;;2.58;;
74791;SDS011;63319;46.046;17.802;2023-03-23T06:26:35;6.38;;;3.45;;
74791;SDS011;63319;46.046;17.802;2023-03-23T06:29:42;6.60;;;3.10;;
74791;SDS011;63319;46.046;17.802;2023-03-23T06:32:44;5.88;;;2.70;;
74791;SDS011;63319;46.046;17.802;2023-03-23T06:35:49;5.57;;;2.88;;
74791;SDS011;63319;46.046;17.802;2023-03-23T06:39:04;5.57;;;3.15;;
74791;SDS011;63319;46.046;17.802;2023-03-23T06:42:19;5.93;;;3.13;;
74791;SDS011;63319;46.046;17.802;2023-03-23T06:45:30;5.67;;;2.70;;
74791;SDS011;63319;46.046;17.802;2023-03-23T06:48:52;6.07;;;2.95;;
74791;SDS011;63319;46.046;17.802;2023-03-23T06:52:02;5.47;;;2.83;;
74791;SDS011;63319;46.046;17.802;2023-03-23T06:55:06;5.80;;;2.80;;
74791;SDS011;63319;46.046;17.802;2023-03-23T06:58:08;7.55;;;3.33;;
74791;SDS011;63319;46.046;17.802;2023-03-23T07:01:10;6.00;;;3.03;;
74791;SDS011;63319;46.046;17.802;2023-03-23T07:04:16;5.32;;;2.78;;
74791;SDS011;63319;46.046;17.802;2023-03-23T07:07:26;6.43;;;3.10;;
74791;SDS011;63319;46.046;17.802;2023-03-23T07:10:50;5.80;;;3.25;;
74791;SDS011;63319;46.046;17.802;2023-03-23T07:13:57;6.13;;;2.85;;
74791;SDS011;63319;46.046;17.802;2023-03-23T07:16:59;7.23;;;2.80;;
74791;SDS011;63319;46.046;17.802;2023-03-23T07:20:02;5.90;;;2.72;;
74791;SDS011;63319;46.046;17.802;2023-03-23T07:23:05;5.13;;;2.80;;
74791;SDS011;63319;46.046;17.802;2023-03-23T07:26:20;5.65;;;2.70;;
74791;SDS011;63319;46.046;17.802;2023-03-23T07:29:27;4.90;;;2.75;;
74791;SDS011;63319;46.046;17.802;2023-03-23T07:32:39;5.37;;;2.60;;
74791;SDS011;63319;46.046;17.802;2023-03-23T07:35:41;7.05;;;3.22;;
74791;SDS011;63319;46.046;17.802;2023-03-23T07:38:48;6.88;;;3.15;;
74791;SDS011;63319;46.046;17.802;2023-03-23T07:41:51;5.88;;;3.00;;
74791;SDS011;63319;46.046;17.802;2023-03-23T07:45:10;5.38;;;2.92;;
74791;SDS011;63319;46.046;17.802;2023-03-23T07:48:12;5.70;;;2.80;;
74791;SDS011;63319;46.046;17.802;2023-03-23T07:51:15;5.68;;;2.65;;
74791;SDS011;63319;46.046;17.802;2023-03-23T07:54:24;5.22;;;3.00;;
74791;SDS011;63319;46.046;17.802;2023-03-23T07:57:37;4.20;;;2.30;;
74791;SDS011;63319;46.046;17.802;2023-03-23T08:00:40;5.43;;;2.50;;
74791;SDS011;63319;46.046;17.802;2023-03-23T08:03:43;4.90;;;2.63;;
74791;SDS011;63319;46.046;17.802;2023-03-23T08:07:01;8.68;;;2.78;;
74791;SDS011;63319;46.046;17.802;2023-03-23T08:10:22;5.32;;;3.10;;
74791;SDS011;63319;46.046;17.802;2023-03-23T08:13:56;7.18;;;2.95;;
74791;SDS011;63319;46.046;17.802;2023-03-23T08:17:15;6.07;;;2.42;;
74791;SDS011;63319;46.046;17.802;2023-03-23T08:20:28;5.43;;;2.67;;
74791;SDS011;63319;46.046;17.802;2023-03-23T08:23:49;7.47;;;2.83;;
74791;SDS011;63319;46.046;17.802;2023-03-23T08:26:51;6.28;;;3.00;;
74791;SDS011;63319;46.046;17.802;2023-03-23T08:30:20;7.63;;;2.97;;
74791;SDS011;63319;46.046;17.802;2023-03-23T08:33:56;8.07;;;3.17;;
74791;SDS011;63319;46.046;17.802;2023-03-23T08:37:33;6.17;;;3.10;;
74791;SDS011;63319;46.046;17.802;2023-03-23T08:40:58;7.60;;;3.03;;
74791;SDS011;63319;46.046;17.802;2023-03-23T08:44:39;7.68;;;3.10;;
74791;SDS011;63319;46.046;17.802;2023-03-23T08:47:50;8.35;;;3.03;;
74791;SDS011;63319;46.046;17.802;2023-03-23T08:51:15;6.18;;;2.92;;
74791;SDS011;63319;46.046;17.802;2023-03-23T08:54:35;6.70;;;2.97;;
74791;SDS011;63319;46.046;17.802;2023-03-23T08:58:24;5.95;;;2.78;;
74791;SDS011;63319;46.046;17.802;2023-03-23T09:01:51;5.22;;;2.95;;
74791;SDS011;63319;46.046;17.802;2023-03-23T09:05:01;7.72;;;3.20;;
74791;SDS011;63319;46.046;17.802;2023-03-23T09:08:18;7.35;;;2.97;;
74791;SDS011;63319;46.046;17.802;2023-03-23T09:11:20;7.37;;;3.33;;
74791;SDS011;63319;46.046;17.802;2023-03-23T09:14:21;5.50;;;2.95;;
74791;SDS011;63319;46.046;17.802;2023-03-23T09:17:23;5.57;;;2.90;;
74791;SDS011;63319;46.046;17.802;2023-03-23T09:20:25;9.07;;;3.10;;
74791;SDS011;63319;46.046;17.802;2023-03-23T09:23:31;6.43;;;3.05;;
74791;SDS011;63319;46.046;17.802;2023-03-23T09:26:34;5.90;;;2.63;;
74791;SDS011;63319;46.046;17.802;2023-03-23T09:29:36;6.18;;;2.80;;
74791;SDS011;63319;46.046;17.802;2023-03-23T09:32:38;6.65;;;2.97;;
74791;SDS011;63319;46.046;17.802;2023-03-23T09:35:40;7.28;;;2.90;;
74791;SDS011;63319;46.046;17.802;2023-03-23T09:38:43;8.02;;;3.47;;
74791;SDS011;63319;46.046;17.802;2023-03-23T09:45:15;7.68;;;3.22;;
74791;SDS011;63319;46.046;17.802;2023-03-23T09:54:46;6.65;;;3.50;;
74791;SDS011;63319;46.046;17.802;2023-03-23T10:01:28;7.97;;;3.40;;
74791;SDS011;63319;46.046;17.802;2023-03-23T10:04:45;10.63;;;3.20;;
74791;SDS011;63319;46.046;17.802;2023-03-23T10:07:49;7.05;;;3.10;;
74791;SDS011;63319;46.046;17.802;2023-03-23T10:17:31;6.30;;;3.15;;
74791;SDS011;63319;46.046;17.802;2023-03-23T10:20:45;6.35;;;3.20;;
74791;SDS011;63319;46.046;17.802;2023-03-23T10:23:55;6.47;;;3.05;;
74791;SDS011;63319;46.046;17.802;2023-03-23T10:27:07;6.72;;;3.22;;
74791;SDS011;63319;46.046;17.802;2023-03-23T10:33:36;6.18;;;2.90;;
74791;SDS011;63319;46.046;17.802;2023-03-23T10:37:08;5.65;;;3.00;;
74791;SDS011;63319;46.046;17.802;2023-03-23T10:40:17;4.88;;;2.80;;
74791;SDS011;63319;46.046;17.802;2023-03-23T10:43:25;6.50;;;3.03;;
74791;SDS011;63319;46.046;17.802;2023-03-23T10:50:06;6.40;;;2.90;;
74791;SDS011;63319;46.046;17.802;2023-03-23T10:56:39;8.77;;;2.80;;
74791;SDS011;63319;46.046;17.802;2023-03-23T10:59:43;5.95;;;2.83;;
74791;SDS011;63319;46.046;17.802;2023-03-23T11:02:47;5.30;;;2.63;;
74791;SDS011;63319;46.046;17.802;2023-03-23T11:06:08;5.85;;;2.88;;
74791;SDS011;63319;46.046;17.802;2023-03-23T11:09:16;5.80;;;3.13;;
74791;SDS011;63319;46.046;17.802;2023-03-23T11:12:20;6.88;;;2.92;;
74791;SDS011;63319;46.046;17.802;2023-03-23T11:15:26;5.25;;;2.55;;
74791;SDS011;63319;46.046;17.802;2023-03-23T11:21:50;5.72;;;2.60;;
74791;SDS011;63319;46.046;17.802;2023-03-23T11:25:00;6.32;;;3.10;;
74791;SDS011;63319;46.046;17.802;2023-03-23T11:28:04;6.80;;;2.40;;
74791;SDS011;63319;46.046;17.802;2023-03-23T11:31:06;4.40;;;2.38;;
74791;SDS011;63319;46.046;17.802;2023-03-23T11:34:09;5.07;;;2.40;;
74791;SDS011;63319;46.046;17.802;2023-03-23T11:37:31;5.25;;;2.63;;
74791;SDS011;63319;46.046;17.802;2023-03-23T11:40:42;5.68;;;2.78;;
74791;SDS011;63319;46.046;17.802;2023-03-23T11:43:50;7.80;;;2.65;;
74791;SDS011;63319;46.046;17.802;2023-03-23T11:53:35;4.97;;;2.38;;
74791;SDS011;63319;46.046;17.802;2023-03-23T11:56:59;5.15;;;2.45;;
74791;SDS011;63319;46.046;17.802;2023-03-23T12:00:01;5.25;;;2.35;;
74791;SDS011;63319;46.046;17.802;2023-03-23T12:03:13;6.45;;;2.22;;
74791;SDS011;63319;46.046;17.802;2023-03-23T12:06:31;5.80;;;2.60;;
74791;SDS011;63319;46.046;17.802;2023-03-23T12:16:25;7.72;;;2.38;;
74791;SDS011;63319;46.046;17.802;2023-03-23T12:32:01;4.82;;;2.25;;
74791;SDS011;63319;46.046;17.802;2023-03-23T12:35:22;6.30;;;2.63;;
74791;SDS011;63319;46.046;17.802;2023-03-23T12:42:27;5.22;;;2.50;;
74791;SDS011;63319;46.046;17.802;2023-03-23T12:52:16;5.32;;;2.20;;
74791;SDS011;63319;46.046;17.802;2023-03-23T12:55:44;4.90;;;2.30;;
74791;SDS011;63319;46.046;17.802;2023-03-23T12:58:53;6.75;;;2.33;;
74791;SDS011;63319;46.046;17.802;2023-03-23T13:02:19;6.47;;;2.53;;
74791;SDS011;63319;46.046;17.802;2023-03-23T13:08:27;7.93;;;2.78;;
74791;SDS011;63319;46.046;17.802;2023-03-23T13:11:34;9.13;;;2.50;;
74791;SDS011;63319;46.046;17.802;2023-03-23T13:21:24;8.05;;;2.40;;
74791;SDS011;63319;46.046;17.802;2023-03-23T13:24:28;6.63;;;2.45;;
74791;SDS011;63319;46.046;17.802;2023-03-23T13:27:32;6.77;;;2.43;;
74791;SDS011;63319;46.046;17.802;2023-03-23T13:30:34;8.00;;;2.60;;
74791;SDS011;63319;46.046;17.802;2023-03-23T13:33:36;5.20;;;2.25;;
74791;SDS011;63319;46.046;17.802;2023-03-23T13:36:38;7.43;;;2.03;;
74791;SDS011;63319;46.046;17.802;2023-03-23T13:42:59;5.90;;;2.20;;
74791;SDS011;63319;46.046;17.802;2023-03-23T13:49:19;5.90;;;2.40;;
74791;SDS011;63319;46.046;17.802;2023-03-23T13:58:29;5.47;;;2.43;;
74791;SDS011;63319;46.046;17.802;2023-03-23T14:01:37;5.40;;;1.95;;
74791;SDS011;63319;46.046;17.802;2023-03-23T14:04:42;9.93;;;2.78;;
74791;SDS011;63319;46.046;17.802;2023-03-23T14:07:54;5.07;;;2.30;;
74791;SDS011;63319;46.046;17.802;2023-03-23T14:11:11;5.88;;;2.15;;
74791;SDS011;63319;46.046;17.802;2023-03-23T14:14:31;5.30;;;2.20;;
74791;SDS011;63319;46.046;17.802;2023-03-23T14:17:40;6.05;;;2.60;;
74791;SDS011;63319;46.046;17.802;2023-03-23T14:20:48;5.15;;;2.22;;
74791;SDS011;63319;46.046;17.802;2023-03-23T14:23:49;5.32;;;2.20;;
74791;SDS011;63319;46.046;17.802;2023-03-23T14:26:53;6.47;;;2.20;;
74791;SDS011;63319;46.046;17.802;2023-03-23T14:30:04;7.53;;;2.07;;
74791;SDS011;63319;46.046;17.802;2023-03-23T14:33:10;9.82;;;2.53;;
74791;SDS011;63319;46.046;17.802;2023-03-23T14:36:14;5.13;;;2.25;;
74791;SDS011;63319;46.046;17.802;2023-03-23T14:39:27;5.50;;;2.38;;
74791;SDS011;63319;46.046;17.802;2023-03-23T14:42:34;6.15;;;2.33;;
74791;SDS011;63319;46.046;17.802;2023-03-23T14:45:37;5.33;;;2.07;;
74791;SDS011;63319;46.046;17.802;2023-03-23T14:48:40;5.38;;;2.35;;
74791;SDS011;63319;46.046;17.802;2023-03-23T14:51:49;5.00;;;2.05;;
74791;SDS011;63319;46.046;17.802;2023-03-23T14:54:52;5.85;;;2.40;;
74791;SDS011;63319;46.046;17.802;2023-03-23T14:57:54;7.40;;;2.38;;
74791;SDS011;63319;46.046;17.802;2023-03-23T15:01:06;5.20;;;2.13;;
74791;SDS011;63319;46.046;17.802;2023-03-23T15:04:13;7.40;;;2.55;;
74791;SDS011;63319;46.046;17.802;2023-03-23T15:07:27;4.18;;;2.05;;
74791;SDS011;63319;46.046;17.802;2023-03-23T15:10:33;4.57;;;1.88;;
74791;SDS011;63319;46.046;17.802;2023-03-23T15:13:35;5.15;;;2.50;;
74791;SDS011;63319;46.046;17.802;2023-03-23T15:16:47;8.53;;;2.27;;
74791;SDS011;63319;46.046;17.802;2023-03-23T15:19:51;4.32;;;2.10;;
74791;SDS011;63319;46.046;17.802;2023-03-23T15:22:54;4.88;;;2.00;;
74791;SDS011;63319;46.046;17.802;2023-03-23T15:25:56;6.38;;;2.10;;
74791;SDS011;63319;46.046;17.802;2023-03-23T15:29:03;5.65;;;2.10;;
74791;SDS011;63319;46.046;17.802;2023-03-23T15:32:09;6.67;;;2.47;;
74791;SDS011;63319;46.046;17.802;2023-03-23T15:35:13;5.03;;;2.17;;
74791;SDS011;63319;46.046;17.802;2023-03-23T15:41:26;5.25;;;1.80;;
74791;SDS011;63319;46.046;17.802;2023-03-23T15:44:31;5.20;;;1.98;;
74791;SDS011;63319;46.046;17.802;2023-03-23T15:47:57;4.93;;;1.77;;
74791;SDS011;63319;46.046;17.802;2023-03-23T15:50:59;5.30;;;2.00;;
74791;SDS011;63319;46.046;17.802;2023-03-23T15:54:07;5.53;;;2.28;;
74791;SDS011;63319;46.046;17.802;2023-03-23T15:57:16;4.80;;;2.22;;
74791;SDS011;63319;46.046;17.802;2023-03-23T16:00:18;4.38;;;1.80;;
74791;SDS011;63319;46.046;17.802;2023-03-23T16:03:24;5.37;;;2.20;;
74791;SDS011;63319;46.046;17.802;2023-03-23T16:06:31;5.63;;;2.10;;
74791;SDS011;63319;46.046;17.802;2023-03-23T16:09:35;5.72;;;2.28;;
74791;SDS011;63319;46.046;17.802;2023-03-23T16:12:38;4.15;;;1.75;;
74791;SDS011;63319;46.046;17.802;2023-03-23T16:15:41;4.55;;;2.15;;
74791;SDS011;63319;46.046;17.802;2023-03-23T16:18:44;3.87;;;1.67;;
74791;SDS011;63319;46.046;17.802;2023-03-23T16:21:47;4.53;;;2.08;;
74791;SDS011;63319;46.046;17.802;2023-03-23T16:24:50;4.28;;;2.20;;
74791;SDS011;63319;46.046;17.802;2023-03-23T16:27:53;4.65;;;2.13;;
74791;SDS011;63319;46.046;17.802;2023-03-23T16:30:56;3.55;;;1.65;;
74791;SDS011;63319;46.046;17.802;2023-03-23T16:33:58;3.87;;;1.90;;
74791;SDS011;63319;46.046;17.802;2023-03-23T16:37:01;4.75;;;1.80;;
74791;SDS011;63319;46.046;17.802;2023-03-23T16:40:04;4.40;;;2.30;;
74791;SDS011;63319;46.046;17.802;2023-03-23T16:43:09;2.85;;;1.67;;
74791;SDS011;63319;46.046;17.802;2023-03-23T16:46:13;5.10;;;1.77;;
74791;SDS011;63319;46.046;17.802;2023-03-23T16:49:16;5.90;;;1.60;;
74791;SDS011;63319;46.046;17.802;2023-03-23T16:52:19;4.20;;;1.90;;
74791;SDS011;63319;46.046;17.802;2023-03-23T16:55:22;5.45;;;1.98;;
74791;SDS011;63319;46.046;17.802;2023-03-23T16:58:27;4.15;;;1.80;;
74791;SDS011;63319;46.046;17.802;2023-03-23T17:01:30;4.18;;;1.98;;
74791;SDS011;63319;46.046;17.802;2023-03-23T17:04:33;4.03;;;2.10;;
74791;SDS011;63319;46.046;17.802;2023-03-23T17:07:39;4.82;;;1.92;;
74791;SDS011;63319;46.046;17.802;2023-03-23T17:10:42;4.05;;;2.00;;
74791;SDS011;63319;46.046;17.802;2023-03-23T17:13:45;4.78;;;2.10;;
74791;SDS011;63319;46.046;17.802;2023-03-23T17:16:48;3.67;;;1.90;;
74791;SDS011;63319;46.046;17.802;2023-03-23T17:19:51;3.87;;;1.73;;
74791;SDS011;63319;46.046;17.802;2023-03-23T17:22:54;4.78;;;2.17;;
74791;SDS011;63319;46.046;17.802;2023-03-23T17:25:57;4.85;;;2.13;;
74791;SDS011;63319;46.046;17.802;2023-03-23T17:29:00;4.57;;;1.90;;
74791;SDS011;63319;46.046;17.802;2023-03-23T17:32:04;4.63;;;2.15;;
74791;SDS011;63319;46.046;17.802;2023-03-23T17:35:07;4.03;;;2.20;;
74791;SDS011;63319;46.046;17.802;2023-03-23T17:38:11;4.65;;;1.90;;
74791;SDS011;63319;46.046;17.802;2023-03-23T17:41:14;4.70;;;2.00;;
74791;SDS011;63319;46.046;17.802;2023-03-23T17:44:18;4.63;;;2.13;;
74791;SDS011;63319;46.046;17.802;2023-03-23T17:47:21;3.50;;;1.65;;
74791;SDS011;63319;46.046;17.802;2023-03-23T17:50:25;4.57;;;1.87;;
74791;SDS011;63319;46.046;17.802;2023-03-23T17:53:33;5.47;;;2.58;;
74791;SDS011;63319;46.046;17.802;2023-03-23T17:56:40;5.30;;;2.50;;
74791;SDS011;63319;46.046;17.802;2023-03-23T17:59:46;4.38;;;2.10;;
74791;SDS011;63319;46.046;17.802;2023-03-23T18:02:50;4.60;;;2.08;;
74791;SDS011;63319;46.046;17.802;2023-03-23T18:05:58;4.37;;;2.10;;
74791;SDS011;63319;46.046;17.802;2023-03-23T18:09:03;4.30;;;2.05;;
74791;SDS011;63319;46.046;17.802;2023-03-23T18:12:07;5.68;;;2.60;;
74791;SDS011;63319;46.046;17.802;2023-03-23T18:15:12;5.15;;;2.33;;
74791;SDS011;63319;46.046;17.802;2023-03-23T18:18:15;4.80;;;2.25;;
74791;SDS011;63319;46.046;17.802;2023-03-23T18:21:20;5.43;;;2.50;;
74791;SDS011;63319;46.046;17.802;2023-03-23T18:24:25;5.20;;;2.33;;
74791;SDS011;63319;46.046;17.802;2023-03-23T18:27:29;5.22;;;2.63;;
74791;SDS011;63319;46.046;17.802;2023-03-23T18:30:33;5.18;;;2.42;;
74791;SDS011;63319;46.046;17.802;2023-03-23T18:33:37;5.95;;;2.47;;
74791;SDS011;63319;46.046;17.802;2023-03-23T18:36:45;5.33;;;2.53;;
74791;SDS011;63319;46.046;17.802;2023-03-23T18:39:52;5.82;;;2.70;;
74791;SDS011;63319;46.046;17.802;2023-03-23T18:42:56;5.68;;;2.92;;
74791;SDS011;63319;46.046;17.802;2023-03-23T18:46:00;5.00;;;2.67;;
74791;SDS011;63319;46.046;17.802;2023-03-23T18:49:04;5.32;;;2.45;;
74791;SDS011;63319;46.046;17.802;2023-03-23T18:52:08;9.37;;;2.90;;
74791;SDS011;63319;46.046;17.802;2023-03-23T18:55:11;5.88;;;2.75;;
74791;SDS011;63319;46.046;17.802;2023-03-23T18:58:15;6.40;;;3.10;;
74791;SDS011;63319;46.046;17.802;2023-03-23T19:01:20;8.05;;;3.42;;
74791;SDS011;63319;46.046;17.802;2023-03-23T19:04:24;7.47;;;3.50;;
74791;SDS011;63319;46.046;17.802;2023-03-23T19:07:34;5.97;;;2.83;;
74791;SDS011;63319;46.046;17.802;2023-03-23T19:10:39;6.65;;;3.40;;
74791;SDS011;63319;46.046;17.802;2023-03-23T19:13:45;6.82;;;3.10;;
74791;SDS011;63319;46.046;17.802;2023-03-23T19:17:03;6.75;;;3.00;;
74791;SDS011;63319;46.046;17.802;2023-03-23T19:20:07;6.30;;;3.30;;
74791;SDS011;63319;46.046;17.802;2023-03-23T19:23:21;7.20;;;3.20;;
74791;SDS011;63319;46.046;17.802;2023-03-23T19:26:28;7.88;;;3.95;;
74791;SDS011;63319;46.046;17.802;2023-03-23T19:29:39;6.60;;;3.20;;
74791;SDS011;63319;46.046;17.802;2023-03-23T19:32:43;7.68;;;3.60;;
74791;SDS011;63319;46.046;17.802;2023-03-23T19:35:48;6.80;;;3.40;;
74791;SDS011;63319;46.046;17.802;2023-03-23T19:39:10;6.67;;;3.13;;
74791;SDS011;63319;46.046;17.802;2023-03-23T19:42:14;9.15;;;3.33;;
74791;SDS011;63319;46.046;17.802;2023-03-23T19:45:20;7.65;;;3.90;;
74791;SDS011;63319;46.046;17.802;2023-03-23T19:48:24;7.60;;;3.55;;
74791;SDS011;63319;46.046;17.802;2023-03-23T19:51:28;7.38;;;3.63;;
74791;SDS011;63319;46.046;17.802;2023-03-23T19:54:34;8.83;;;3.80;;
74791;SDS011;63319;46.046;17.802;2023-03-23T19:57:38;7.18;;;3.75;;
74791;SDS011;63319;46.046;17.802;2023-03-23T20:00:42;7.47;;;4.03;;
74791;SDS011;63319;46.046;17.802;2023-03-23T20:03:47;8.15;;;3.90;;
74791;SDS011;63319;46.046;17.802;2023-03-23T20:06:51;6.93;;;3.72;;
74791;SDS011;63319;46.046;17.802;2023-03-23T20:09:55;6.83;;;3.77;;
74791;SDS011;63319;46.046;17.802;2023-03-23T20:13:01;7.78;;;3.60;;
74791;SDS011;63319;46.046;17.802;2023-03-23T20:16:06;7.43;;;3.60;;
74791;SDS011;63319;46.046;17.802;2023-03-23T20:19:12;6.40;;;3.13;;
74791;SDS011;63319;46.046;17.802;2023-03-23T20:22:16;7.10;;;3.58;;
74791;SDS011;63319;46.046;17.802;2023-03-23T20:25:21;6.73;;;3.30;;
74791;SDS011;63319;46.046;17.802;2023-03-23T20:28:28;7.07;;;3.65;;
74791;SDS011;63319;46.046;17.802;2023-03-23T20:31:35;7.55;;;3.70;;